Ryuoh Maru No.2 — JM5900 — position and weather

sailwx.info

Track history (hours):
 
Tides and Currents Weather Stations Pressure Air Temp Water Temp Dewpoint Dewpoint Depression Visibility Wind Speed Wind Dir Waves Ship Positions

Ryuoh Maru No.2

Last reported at 2015-Apr-19 02:30 UTC. Time now 2015-Apr-19 03:08 UTC.
Position N 35°21' E 139°48'.

Length 80 m; draft 4.9 m.

Type: Cargo ship. MMSI: 431401218.

Date/timePositionNaut miles runAvg speedWind from/ knotsBaromVisibWave heightAir tempDewpointWater temp
2015-Apr-19 02:30N 35°21' E 139°48'0 0.0
2015-Apr-19 01:33N 35°21' E 139°48'0 0.0
2015-Apr-19 00:30N 35°21' E 139°48'0 0.0
2015-Apr-18 23:33N 35°21' E 139°48'2 2.1
2015-Apr-18 22:34N 35°21' E 139°45'9 9.1
2015-Apr-18 21:34N 35°12' E 139°47'1110.6
2015-Apr-18 20:33N 35°02' E 139°45'10 9.5
2015-Apr-18 19:33N 34°53' E 139°48'11 9.4
2015-Apr-18 18:22N 34°55' E 140°01'810.0
2015-Apr-18 17:33N 34°60' E 140°09'22 9.2
2015-Apr-18 15:12N 35°14' E 140°30'7 9.5
2015-Apr-18 14:25N 35°19' E 140°35'9 9.8
2015-Apr-18 13:32N 35°27' E 140°42'  
2015-Apr-12 15:10N 37°11' E 141°06'1710.1
2015-Apr-12 13:30N 36°54' E 141°04'1010.3
2015-Apr-12 12:31N 36°44' E 141°01'1010.3
2015-Apr-12 11:32N 36°34' E 140°57'1010.2
2015-Apr-12 10:33N 36°25' E 140°54'1110.2
2015-Apr-12 09:29N 36°14' E 140°53'1110.9
2015-Apr-12 08:31N 36°03' E 140°53'28 9.1
2015-Apr-12 05:27N 35°36' E 140°51'9 9.3
2015-Apr-12 04:28N 35°29' E 140°44'9 9.2
2015-Apr-12 03:27N 35°21' E 140°37'8 8.6
2015-Apr-12 02:31N 35°15' E 140°31'16 8.0
2015-Apr-12 00:31N 35°04' E 140°17'8 8.3
2015-Apr-11 23:32N 34°59' E 140°08'8 8.6
2015-Apr-11 22:33N 34°54' E 139°60'9 8.6
2015-Apr-11 21:29N 34°52' E 139°49'8 9.0
2015-Apr-11 20:33N 34°59' E 139°43'1010.5
2015-Apr-11 19:33N 35°10' E 139°45'10 9.9
2015-Apr-11 18:33N 35°19' E 139°43'9 9.1
2015-Apr-11 17:33N 35°28' E 139°48'4 3.4
2015-Apr-11 16:31N 35°30' E 139°51'0 0.0
2015-Apr-11 15:31N 35°30' E 139°51'0 0.0
2015-Apr-11 14:31N 35°30' E 139°51'0 0.0
2015-Apr-11 13:31N 35°30' E 139°51'0 0.1
2015-Apr-11 12:31N 35°30' E 139°51'0 0.0
2015-Apr-11 11:22N 35°30' E 139°51'0 0.0
2015-Apr-11 10:31N 35°30' E 139°51'0 0.0
2015-Apr-11 09:31N 35°30' E 139°51'0 0.0
2015-Apr-11 08:31N 35°30' E 139°51'0 0.0
2015-Apr-11 07:31N 35°30' E 139°51'0 0.0
2015-Apr-11 06:31N 35°30' E 139°51'0 0.0
2015-Apr-11 05:31N 35°30' E 139°51'0 0.0
2015-Apr-11 04:31N 35°30' E 139°51'0 0.0
2015-Apr-11 03:31N 35°30' E 139°51'0 0.0
2015-Apr-11 02:31N 35°30' E 139°51'0 0.0
2015-Apr-11 01:31N 35°30' E 139°51'0 0.0
2015-Apr-11 00:31N 35°30' E 139°51'0 0.0
2015-Apr-10 23:28N 35°30' E 139°51'0 0.0
2015-Apr-10 22:28N 35°30' E 139°51'0 0.0
2015-Apr-10 21:28N 35°30' E 139°51'0 0.0
2015-Apr-10 20:31N 35°30' E 139°51'0 0.0
2015-Apr-10 19:31N 35°30' E 139°51'0 0.0
2015-Apr-10 18:31N 35°30' E 139°51'0 0.0
2015-Apr-10 17:28N 35°30' E 139°51'0 0.0
2015-Apr-10 16:28N 35°30' E 139°51'0 0.0
2015-Apr-10 15:31N 35°30' E 139°51'0 0.0
2015-Apr-10 14:31N 35°30' E 139°51'0 0.0
2015-Apr-10 13:31N 35°30' E 139°51'0 0.0
2015-Apr-10 12:31N 35°30' E 139°51'0 0.0
2015-Apr-10 11:28N 35°30' E 139°51'0 0.0
2015-Apr-10 10:31N 35°30' E 139°51'3 3.6
2015-Apr-10 09:33N 35°27' E 139°50'5 2.4
2015-Apr-10 07:25N 35°22' E 139°51'0 0.0
2015-Apr-10 06:25N 35°22' E 139°51'0 0.0
2015-Apr-10 05:31N 35°22' E 139°51'0 0.0
2015-Apr-10 04:31N 35°22' E 139°51'0 0.0
2015-Apr-10 03:25N 35°22' E 139°51'0 0.0
2015-Apr-10 02:10N 35°22' E 139°51'0 0.0
2015-Apr-10 01:16N 35°22' E 139°51'0 0.0
2015-Apr-10 00:28N 35°22' E 139°51'0 0.0
2015-Apr-09 23:33N 35°22' E 139°51'0 0.0
2015-Apr-09 22:34N 35°22' E 139°51'1 1.0
2015-Apr-09 21:30N 35°22' E 139°49'0 0.0
2015-Apr-09 20:33N 35°22' E 139°49'0 0.0
2015-Apr-09 19:33N 35°22' E 139°49'0 0.0
2015-Apr-09 18:30N 35°22' E 139°49'0 0.0
2015-Apr-09 17:33N 35°22' E 139°49'0 0.0
2015-Apr-09 16:33N 35°22' E 139°49'0 0.0
2015-Apr-09 15:33N 35°22' E 139°49'0 0.0
2015-Apr-09 14:33N 35°22' E 139°49'0 0.0
2015-Apr-09 13:30N 35°22' E 139°49'0 0.0
2015-Apr-09 12:33N 35°22' E 139°49'0 0.0
2015-Apr-09 11:33N 35°22' E 139°49'0 0.0
2015-Apr-09 10:33N 35°22' E 139°49'0 0.0
2015-Apr-09 09:33N 35°22' E 139°49'0 0.0
2015-Apr-09 08:30N 35°22' E 139°49'0 0.0
2015-Apr-09 07:30N 35°22' E 139°49'0 0.1
2015-Apr-09 06:33N 35°22' E 139°49'0 0.0
2015-Apr-09 05:33N 35°22' E 139°49'0 0.0
2015-Apr-09 04:31N 35°22' E 139°49'5 5.5
2015-Apr-09 03:33N 35°18' E 139°45'8 8.4
2015-Apr-09 02:33N 35°10' E 139°47'  
Track history (hours):
 
Tides and Currents Weather Stations Pressure Air Temp Water Temp Dewpoint Dewpoint Depression Visibility Wind Speed Wind Dir Waves Ship Positions

Ryuoh Maru No.2

Last reported at 2015-Apr-19 02:30 UTC. Time now 2015-Apr-19 03:08 UTC.
Position N 35°21' E 139°48'.

Length 80 m; draft 4.9 m.

Type: Cargo ship. MMSI: 431401218.

Date/timePositionNaut miles runAvg speedWind from/ knotsBaromVisibWave heightAir tempDewpointWater temp
2015-Apr-19 02:30N 35°21' E 139°48'0 0.0
2015-Apr-19 01:33N 35°21' E 139°48'0 0.0
2015-Apr-19 00:30N 35°21' E 139°48'0 0.0
2015-Apr-18 23:33N 35°21' E 139°48'2 2.1
2015-Apr-18 22:34N 35°21' E 139°45'9 9.1
2015-Apr-18 21:34N 35°12' E 139°47'1110.6
2015-Apr-18 20:33N 35°02' E 139°45'10 9.5
2015-Apr-18 19:33N 34°53' E 139°48'11 9.4
2015-Apr-18 18:22N 34°55' E 140°01'810.0
2015-Apr-18 17:33N 34°60' E 140°09'22 9.2
2015-Apr-18 15:12N 35°14' E 140°30'7 9.5
2015-Apr-18 14:25N 35°19' E 140°35'9 9.8
2015-Apr-18 13:32N 35°27' E 140°42'  
2015-Apr-12 15:10N 37°11' E 141°06'1710.1
2015-Apr-12 13:30N 36°54' E 141°04'1010.3
2015-Apr-12 12:31N 36°44' E 141°01'1010.3
2015-Apr-12 11:32N 36°34' E 140°57'1010.2
2015-Apr-12 10:33N 36°25' E 140°54'1110.2
2015-Apr-12 09:29N 36°14' E 140°53'1110.9
2015-Apr-12 08:31N 36°03' E 140°53'28 9.1
2015-Apr-12 05:27N 35°36' E 140°51'9 9.3
2015-Apr-12 04:28N 35°29' E 140°44'9 9.2
2015-Apr-12 03:27N 35°21' E 140°37'8 8.6
2015-Apr-12 02:31N 35°15' E 140°31'16 8.0
2015-Apr-12 00:31N 35°04' E 140°17'8 8.3
2015-Apr-11 23:32N 34°59' E 140°08'8 8.6
2015-Apr-11 22:33N 34°54' E 139°60'9 8.6
2015-Apr-11 21:29N 34°52' E 139°49'8 9.0
2015-Apr-11 20:33N 34°59' E 139°43'1010.5
2015-Apr-11 19:33N 35°10' E 139°45'10 9.9
2015-Apr-11 18:33N 35°19' E 139°43'9 9.1
2015-Apr-11 17:33N 35°28' E 139°48'4 3.4
2015-Apr-11 16:31N 35°30' E 139°51'0 0.0
2015-Apr-11 15:31N 35°30' E 139°51'0 0.0
2015-Apr-11 14:31N 35°30' E 139°51'0 0.0
2015-Apr-11 13:31N 35°30' E 139°51'0 0.1
2015-Apr-11 12:31N 35°30' E 139°51'0 0.0
2015-Apr-11 11:22N 35°30' E 139°51'0 0.0
2015-Apr-11 10:31N 35°30' E 139°51'0 0.0
2015-Apr-11 09:31N 35°30' E 139°51'0 0.0
2015-Apr-11 08:31N 35°30' E 139°51'0 0.0
2015-Apr-11 07:31N 35°30' E 139°51'0 0.0
2015-Apr-11 06:31N 35°30' E 139°51'0 0.0
2015-Apr-11 05:31N 35°30' E 139°51'0 0.0
2015-Apr-11 04:31N 35°30' E 139°51'0 0.0
2015-Apr-11 03:31N 35°30' E 139°51'0 0.0
2015-Apr-11 02:31N 35°30' E 139°51'0 0.0
2015-Apr-11 01:31N 35°30' E 139°51'0 0.0
2015-Apr-11 00:31N 35°30' E 139°51'0 0.0
2015-Apr-10 23:28N 35°30' E 139°51'0 0.0
2015-Apr-10 22:28N 35°30' E 139°51'0 0.0
2015-Apr-10 21:28N 35°30' E 139°51'0 0.0
2015-Apr-10 20:31N 35°30' E 139°51'0 0.0
2015-Apr-10 19:31N 35°30' E 139°51'0 0.0
2015-Apr-10 18:31N 35°30' E 139°51'0 0.0
2015-Apr-10 17:28N 35°30' E 139°51'0 0.0
2015-Apr-10 16:28N 35°30' E 139°51'0 0.0
2015-Apr-10 15:31N 35°30' E 139°51'0 0.0
2015-Apr-10 14:31N 35°30' E 139°51'0 0.0
2015-Apr-10 13:31N 35°30' E 139°51'0 0.0
2015-Apr-10 12:31N 35°30' E 139°51'0 0.0
2015-Apr-10 11:28N 35°30' E 139°51'0 0.0
2015-Apr-10 10:31N 35°30' E 139°51'3 3.6
2015-Apr-10 09:33N 35°27' E 139°50'5 2.4
2015-Apr-10 07:25N 35°22' E 139°51'0 0.0
2015-Apr-10 06:25N 35°22' E 139°51'0 0.0
2015-Apr-10 05:31N 35°22' E 139°51'0 0.0
2015-Apr-10 04:31N 35°22' E 139°51'0 0.0
2015-Apr-10 03:25N 35°22' E 139°51'0 0.0
2015-Apr-10 02:10N 35°22' E 139°51'0 0.0
2015-Apr-10 01:16N 35°22' E 139°51'0 0.0
2015-Apr-10 00:28N 35°22' E 139°51'0 0.0
2015-Apr-09 23:33N 35°22' E 139°51'0 0.0
2015-Apr-09 22:34N 35°22' E 139°51'1 1.0
2015-Apr-09 21:30N 35°22' E 139°49'0 0.0
2015-Apr-09 20:33N 35°22' E 139°49'0 0.0
2015-Apr-09 19:33N 35°22' E 139°49'0 0.0
2015-Apr-09 18:30N 35°22' E 139°49'0 0.0
2015-Apr-09 17:33N 35°22' E 139°49'0 0.0
2015-Apr-09 16:33N 35°22' E 139°49'0 0.0
2015-Apr-09 15:33N 35°22' E 139°49'0 0.0
2015-Apr-09 14:33N 35°22' E 139°49'0 0.0
2015-Apr-09 13:30N 35°22' E 139°49'0 0.0
2015-Apr-09 12:33N 35°22' E 139°49'0 0.0
2015-Apr-09 11:33N 35°22' E 139°49'0 0.0
2015-Apr-09 10:33N 35°22' E 139°49'0 0.0
2015-Apr-09 09:33N 35°22' E 139°49'0 0.0
2015-Apr-09 08:30N 35°22' E 139°49'0 0.0
2015-Apr-09 07:30N 35°22' E 139°49'0 0.1
2015-Apr-09 06:33N 35°22' E 139°49'0 0.0
2015-Apr-09 05:33N 35°22' E 139°49'0 0.0
2015-Apr-09 04:31N 35°22' E 139°49'5 5.5
2015-Apr-09 03:33N 35°18' E 139°45'8 8.4
2015-Apr-09 02:33N 35°10' E 139°47'  

Dump ship's entire track history